createdAt,value
2022-08-26T00:00:54.321Z,987.72
2022-08-26T00:01:55.923Z,987.73
2022-08-26T00:02:57.565Z,987.7
2022-08-26T00:03:59.382Z,987.7
2022-08-26T00:05:01.050Z,987.71
2022-08-26T00:06:03.832Z,987.7
2022-08-26T00:07:05.395Z,987.7
2022-08-26T00:08:06.249Z,987.72
2022-08-26T00:09:08.162Z,987.73
2022-08-26T00:10:09.701Z,987.7
2022-08-26T00:11:11.459Z,987.71
2022-08-26T00:12:13.171Z,987.71
2022-08-26T00:13:14.906Z,987.73
2022-08-26T00:14:16.641Z,987.71
2022-08-26T00:15:18.402Z,987.76
2022-08-26T00:16:20.178Z,987.73
2022-08-26T00:17:21.872Z,987.74
2022-08-26T00:18:23.584Z,987.7
2022-08-26T00:19:25.313Z,987.7
2022-08-26T00:20:27.043Z,987.68
2022-08-26T00:21:28.792Z,987.7
2022-08-26T00:22:30.516Z,987.7
2022-08-26T00:23:32.259Z,987.69
2022-08-26T00:24:33.981Z,987.67
2022-08-26T00:25:35.749Z,987.65
2022-08-26T00:26:37.474Z,987.65
2022-08-26T00:27:39.177Z,987.65
2022-08-26T00:28:40.919Z,987.65
2022-08-26T00:29:42.677Z,987.64
2022-08-26T00:30:45.574Z,987.67
2022-08-26T00:31:46.297Z,987.63
2022-08-26T00:32:47.873Z,987.65
2022-08-26T00:33:49.775Z,987.65
2022-08-26T00:34:51.313Z,987.66
2022-08-26T00:35:53.075Z,987.68
2022-08-26T00:36:54.788Z,987.63
2022-08-26T00:37:56.524Z,987.66
2022-08-26T00:38:58.511Z,987.64
2022-08-26T00:40:00.747Z,987.62
2022-08-26T00:41:01.739Z,987.61
2022-08-26T00:42:04.961Z,987.6
2022-08-26T00:43:09.509Z,987.61
2022-08-26T00:44:06.913Z,987.59
2022-08-26T00:45:11.654Z,987.6
2022-08-26T00:46:10.466Z,987.65
2022-08-26T00:47:12.121Z,987.63
2022-08-26T00:48:13.852Z,987.65
2022-08-26T00:49:15.583Z,987.65
2022-08-26T00:50:17.354Z,987.7
2022-08-26T00:51:19.062Z,987.65
2022-08-26T00:52:20.801Z,987.64
2022-08-26T00:53:26.004Z,987.65
2022-08-26T00:54:24.252Z,987.63
2022-08-26T00:55:27.481Z,987.63
2022-08-26T00:56:27.718Z,987.61
2022-08-26T00:57:29.460Z,987.61
2022-08-26T00:58:31.187Z,987.63
2022-08-26T00:59:33.230Z,987.62
2022-08-26T01:00:34.651Z,987.67
2022-08-26T01:01:36.443Z,987.67
2022-08-26T01:02:38.224Z,987.67
2022-08-26T01:03:39.855Z,987.68
2022-08-26T01:04:41.593Z,987.74
2022-08-26T01:05:43.334Z,987.68
2022-08-26T01:06:45.056Z,987.71
2022-08-26T01:07:46.794Z,987.72
2022-08-26T01:08:48.524Z,987.66
2022-08-26T01:09:50.259Z,987.63
2022-08-26T01:10:51.998Z,987.63
2022-08-26T01:11:53.727Z,987.6
2022-08-26T01:12:55.483Z,987.62
2022-08-26T01:13:57.202Z,987.62
2022-08-26T01:14:58.936Z,987.59
2022-08-26T01:16:00.685Z,987.56
2022-08-26T01:17:02.395Z,987.55
2022-08-26T01:18:04.126Z,987.51
2022-08-26T01:19:05.864Z,987.5
2022-08-26T01:20:07.601Z,987.51
2022-08-26T01:21:09.334Z,987.54
2022-08-26T01:22:11.053Z,987.54
2022-08-26T01:23:13.052Z,987.52
2022-08-26T01:24:14.531Z,987.55
2022-08-26T01:25:16.266Z,987.52
2022-08-26T01:26:19.827Z,987.49
2022-08-26T01:27:19.772Z,987.49
2022-08-26T01:28:21.525Z,987.51
2022-08-26T01:29:23.196Z,987.52
2022-08-26T01:30:25.001Z,987.5
2022-08-26T01:31:26.728Z,987.5
2022-08-26T01:32:28.438Z,987.49
2022-08-26T01:33:30.176Z,987.5
2022-08-26T01:34:31.884Z,987.5
2022-08-26T01:35:33.669Z,987.55
2022-08-26T01:36:35.331Z,987.56
2022-08-26T01:37:37.092Z,987.57
2022-08-26T01:38:38.797Z,987.56
2022-08-26T01:39:40.546Z,987.58
2022-08-26T01:40:42.258Z,987.57
2022-08-26T01:41:44.201Z,987.59
2022-08-26T01:42:45.724Z,987.59
2022-08-26T01:43:47.476Z,987.61
2022-08-26T01:44:49.314Z,987.62
2022-08-26T01:45:50.978Z,987.59
2022-08-26T01:46:52.709Z,987.6
2022-08-26T01:47:56.919Z,987.59
2022-08-26T01:48:56.131Z,987.58
2022-08-26T01:49:57.867Z,987.66
2022-08-26T01:50:59.680Z,987.62
2022-08-26T01:52:01.352Z,987.63
2022-08-26T01:53:03.060Z,987.66
2022-08-26T01:54:04.798Z,987.68
2022-08-26T01:55:06.549Z,987.65
2022-08-26T01:56:08.273Z,987.65
2022-08-26T01:57:10.046Z,987.68
2022-08-26T01:58:11.758Z,987.64
2022-08-26T01:59:13.764Z,987.66
2022-08-26T02:00:16.162Z,987.68
2022-08-26T02:01:17.023Z,987.68
2022-08-26T02:02:18.686Z,987.68
2022-08-26T02:03:20.428Z,987.67
2022-08-26T02:04:22.200Z,987.67
2022-08-26T02:05:23.900Z,987.65
2022-08-26T02:06:25.638Z,987.63
2022-08-26T02:07:27.342Z,987.65
2022-08-26T02:08:29.074Z,987.69
2022-08-26T02:09:30.883Z,987.67
2022-08-26T02:10:32.548Z,987.64
2022-08-26T02:11:34.303Z,987.68
2022-08-26T02:12:36.011Z,987.68
2022-08-26T02:13:37.741Z,987.65
2022-08-26T02:14:43.534Z,987.66
2022-08-26T02:15:41.222Z,987.69
2022-08-26T02:16:43.036Z,987.66
2022-08-26T02:17:44.672Z,987.67
2022-08-26T02:18:46.982Z,987.64
2022-08-26T02:19:48.139Z,987.7
2022-08-26T02:20:51.579Z,987.69
2022-08-26T02:21:51.910Z,987.65
2022-08-26T02:22:53.348Z,987.75
2022-08-26T02:23:56.160Z,987.73
2022-08-26T02:24:56.808Z,987.71
2022-08-26T02:25:58.715Z,987.74
2022-08-26T02:27:00.270Z,987.74
2022-08-26T02:28:02.123Z,987.74
2022-08-26T02:29:03.734Z,987.75
2022-08-26T02:30:05.651Z,987.71
2022-08-26T02:31:07.282Z,987.68
2022-08-26T02:32:09.081Z,987.7
2022-08-26T02:33:10.713Z,987.66
2022-08-26T02:34:12.443Z,987.72
2022-08-26T02:35:14.173Z,987.67
2022-08-26T02:36:16.077Z,987.68
2022-08-26T02:37:17.796Z,987.7
2022-08-26T02:38:19.472Z,987.66
2022-08-26T02:39:22.316Z,987.68
2022-08-26T02:40:22.891Z,987.69
2022-08-26T02:41:24.545Z,987.71
2022-08-26T02:42:26.325Z,987.73
2022-08-26T02:43:31.780Z,987.69
2022-08-26T02:44:29.737Z,987.68
2022-08-26T02:45:31.476Z,987.71
2022-08-26T02:46:33.363Z,987.75
2022-08-26T02:47:34.944Z,987.76
2022-08-26T02:48:36.711Z,987.72
2022-08-26T02:49:38.420Z,987.74
2022-08-26T02:50:40.162Z,987.76
2022-08-26T02:51:43.097Z,987.75
2022-08-26T02:52:43.626Z,987.76
2022-08-26T02:53:45.346Z,987.78
2022-08-26T02:54:47.069Z,987.72
2022-08-26T02:55:48.825Z,987.75
2022-08-26T02:56:50.538Z,987.82
2022-08-26T02:57:52.279Z,987.81
2022-08-26T02:58:54.008Z,987.82
2022-08-26T02:59:55.747Z,987.77
2022-08-26T03:00:57.533Z,987.75
2022-08-26T03:01:59.260Z,987.78
2022-08-26T03:03:00.975Z,987.8
2022-08-26T03:04:02.681Z,987.71
2022-08-26T03:05:04.414Z,987.81
2022-08-26T03:06:06.153Z,987.81
2022-08-26T03:07:07.875Z,987.83
2022-08-26T03:08:09.609Z,987.83
2022-08-26T03:09:13.999Z,987.83
2022-08-26T03:10:13.293Z,987.79
2022-08-26T03:11:14.822Z,987.81
2022-08-26T03:12:16.610Z,987.81
2022-08-26T03:13:18.277Z,987.78
2022-08-26T03:14:20.071Z,987.78
2022-08-26T03:15:21.755Z,987.78
2022-08-26T03:16:23.626Z,987.72
2022-08-26T03:17:25.237Z,987.76
2022-08-26T03:18:26.967Z,987.78
2022-08-26T03:19:28.717Z,987.75
2022-08-26T03:20:30.502Z,987.76
2022-08-26T03:21:32.172Z,987.78
2022-08-26T03:22:33.895Z,987.75
2022-08-26T03:23:35.618Z,987.74
2022-08-26T03:24:37.339Z,987.75
2022-08-26T03:25:39.082Z,987.74
2022-08-26T03:26:40.816Z,987.76
2022-08-26T03:27:43.104Z,987.77
2022-08-26T03:28:44.337Z,987.75
2022-08-26T03:29:50.392Z,987.75
2022-08-26T03:30:47.758Z,987.72
2022-08-26T03:31:49.533Z,987.72
2022-08-26T03:32:51.222Z,987.75
2022-08-26T03:33:56.536Z,987.72
2022-08-26T03:34:54.692Z,987.7
2022-08-26T03:35:56.409Z,987.72
2022-08-26T03:36:58.156Z,987.69
2022-08-26T03:37:59.905Z,987.66
2022-08-26T03:39:01.628Z,987.67
2022-08-26T03:40:03.425Z,987.64
2022-08-26T03:41:05.081Z,987.62
2022-08-26T03:42:06.824Z,987.61
2022-08-26T03:43:09.689Z,987.64
2022-08-26T03:44:10.275Z,987.59
2022-08-26T03:45:12.025Z,987.63
2022-08-26T03:46:13.814Z,987.65
2022-08-26T03:47:15.488Z,987.62
2022-08-26T03:48:17.217Z,987.66
2022-08-26T03:49:19.013Z,987.65
2022-08-26T03:50:22.983Z,987.66
2022-08-26T03:51:22.416Z,987.66
2022-08-26T03:52:24.141Z,987.74
2022-08-26T03:53:25.882Z,987.71
2022-08-26T03:54:27.620Z,987.72
2022-08-26T03:55:29.394Z,987.76
2022-08-26T03:56:31.078Z,987.73
2022-08-26T03:57:32.826Z,987.77
2022-08-26T03:58:34.556Z,987.77
2022-08-26T03:59:36.289Z,987.75
2022-08-26T04:00:38.024Z,987.75
2022-08-26T04:01:39.828Z,987.68
2022-08-26T04:02:41.571Z,987.7
2022-08-26T04:03:43.227Z,987.71
2022-08-26T04:04:44.964Z,987.69
2022-08-26T04:05:46.700Z,987.68
2022-08-26T04:06:48.428Z,987.68
2022-08-26T04:07:50.431Z,987.67
2022-08-26T04:08:51.887Z,987.68
2022-08-26T04:09:53.651Z,987.71
2022-08-26T04:10:55.365Z,987.67
2022-08-26T04:11:57.095Z,987.68
2022-08-26T04:12:59.319Z,987.64
2022-08-26T04:14:00.569Z,987.68
2022-08-26T04:15:02.290Z,987.69
2022-08-26T04:16:04.098Z,987.69
2022-08-26T04:17:05.764Z,987.65
2022-08-26T04:18:07.506Z,987.67
2022-08-26T04:19:09.229Z,987.71
2022-08-26T04:20:10.970Z,987.69
2022-08-26T04:21:12.693Z,987.69
2022-08-26T04:22:14.426Z,987.72
2022-08-26T04:23:16.150Z,987.69
2022-08-26T04:24:17.957Z,987.68
2022-08-26T04:25:20.621Z,987.63
2022-08-26T04:26:21.357Z,987.71
2022-08-26T04:27:23.085Z,987.73
2022-08-26T04:28:24.832Z,987.7
2022-08-26T04:29:26.558Z,987.69
2022-08-26T04:30:28.287Z,987.71
2022-08-26T04:31:30.981Z,987.64
2022-08-26T04:32:31.763Z,987.71
2022-08-26T04:33:33.494Z,987.7
2022-08-26T04:34:35.212Z,987.71
2022-08-26T04:35:36.957Z,987.67
2022-08-26T04:36:38.695Z,987.72
2022-08-26T04:37:43.149Z,987.67
2022-08-26T04:38:42.161Z,987.68
2022-08-26T04:39:43.883Z,987.72
2022-08-26T04:40:46.757Z,987.72
2022-08-26T04:41:47.370Z,987.69
2022-08-26T04:42:50.406Z,987.72
2022-08-26T04:43:50.828Z,987.75
2022-08-26T04:44:52.549Z,987.67
2022-08-26T04:45:54.274Z,987.71
2022-08-26T04:46:56.032Z,987.7
2022-08-26T04:47:57.750Z,987.7
2022-08-26T04:48:59.480Z,987.69
2022-08-26T04:50:01.907Z,987.69
2022-08-26T04:51:07.957Z,987.7
2022-08-26T04:52:04.808Z,987.67
2022-08-26T04:53:07.199Z,987.7
2022-08-26T04:54:08.144Z,987.67
2022-08-26T04:55:09.888Z,987.7
2022-08-26T04:56:11.625Z,987.7
2022-08-26T04:57:13.353Z,987.72
2022-08-26T04:58:15.074Z,987.7
2022-08-26T04:59:17.988Z,987.68
2022-08-26T05:00:18.546Z,987.74
2022-08-26T05:01:20.348Z,987.72
2022-08-26T05:02:22.022Z,987.73
2022-08-26T05:03:23.775Z,987.78
2022-08-26T05:04:25.564Z,987.74
2022-08-26T05:05:27.219Z,987.76
2022-08-26T05:06:28.990Z,987.81
2022-08-26T05:07:30.705Z,987.81
2022-08-26T05:08:32.426Z,987.82
2022-08-26T05:09:34.144Z,987.81
2022-08-26T05:10:35.873Z,987.87
2022-08-26T05:11:37.614Z,987.85
2022-08-26T05:12:39.350Z,987.89
2022-08-26T05:13:41.072Z,987.86
2022-08-26T05:14:42.898Z,987.91
2022-08-26T05:15:44.625Z,987.88
2022-08-26T05:16:47.882Z,987.9
2022-08-26T05:17:48.061Z,987.92
2022-08-26T05:18:49.736Z,987.87
2022-08-26T05:19:51.519Z,987.8
2022-08-26T05:20:53.882Z,987.83
2022-08-26T05:21:54.989Z,987.82
2022-08-26T05:22:56.676Z,987.85
2022-08-26T05:23:58.444Z,987.87
2022-08-26T05:25:00.179Z,987.86
2022-08-26T05:26:02.043Z,987.89
2022-08-26T05:27:03.856Z,987.87
2022-08-26T05:28:05.386Z,987.9
2022-08-26T05:29:07.105Z,987.88
2022-08-26T05:30:08.887Z,987.9
2022-08-26T05:31:10.628Z,987.93
2022-08-26T05:32:12.274Z,987.93
2022-08-26T05:33:14.021Z,987.91
2022-08-26T05:34:15.772Z,987.88
2022-08-26T05:35:17.474Z,987.89
2022-08-26T05:36:19.232Z,987.91
2022-08-26T05:37:20.951Z,987.94
2022-08-26T05:38:22.683Z,987.92
2022-08-26T05:39:24.407Z,987.97
2022-08-26T05:40:26.242Z,987.93
2022-08-26T05:41:27.871Z,987.98
2022-08-26T05:42:29.617Z,988
2022-08-26T05:43:31.342Z,987.97
2022-08-26T05:44:53.514Z,987.99
2022-08-26T05:45:34.810Z,988
2022-08-26T05:46:36.718Z,988
2022-08-26T05:47:38.312Z,987.96
2022-08-26T05:48:40.020Z,987.99
2022-08-26T05:49:41.859Z,988.02
2022-08-26T05:50:43.485Z,987.98
2022-08-26T05:51:45.276Z,988.01
2022-08-26T05:52:46.958Z,988.01
2022-08-26T05:53:54.638Z,988.05
2022-08-26T05:54:50.407Z,988.03
2022-08-26T05:55:52.139Z,988.03
2022-08-26T05:56:53.873Z,988.07
2022-08-26T05:57:55.615Z,988.03
2022-08-26T05:58:58.353Z,988.03
2022-08-26T05:59:59.181Z,988.01
2022-08-26T06:01:00.818Z,988.02
2022-08-26T06:02:02.563Z,988.02
2022-08-26T06:03:04.373Z,988.03
2022-08-26T06:04:06.011Z,988.06
2022-08-26T06:05:07.755Z,988.04
2022-08-26T06:06:09.682Z,988
2022-08-26T06:07:12.109Z,988.06
2022-08-26T06:08:12.940Z,988.08
2022-08-26T06:09:14.683Z,988.1
2022-08-26T06:10:31.567Z,988.06
2022-08-26T06:11:18.775Z,988.13
2022-08-26T06:12:19.889Z,988.12
2022-08-26T06:13:21.626Z,988.09
2022-08-26T06:14:23.552Z,988.12
2022-08-26T06:15:25.091Z,988.11
2022-08-26T06:16:26.916Z,988.16
2022-08-26T06:17:28.546Z,988.13
2022-08-26T06:18:30.284Z,988.16
2022-08-26T06:19:32.893Z,988.17
2022-08-26T06:20:33.792Z,988.13
2022-08-26T06:21:35.552Z,988.08
2022-08-26T06:22:37.297Z,988.13
2022-08-26T06:23:39.269Z,988.12
2022-08-26T06:24:40.763Z,988.08
2022-08-26T06:25:11.602Z,988.08
2022-08-26T06:25:42.461Z,988.11
2022-08-26T06:26:44.221Z,988.09
2022-08-26T06:27:45.924Z,988.12
2022-08-26T06:28:06.504Z,988.12
2022-08-26T06:29:08.224Z,988.11
2022-08-26T06:30:09.969Z,988.12
2022-08-26T06:31:11.835Z,988.08
2022-08-26T06:32:13.401Z,988.11
2022-08-26T06:33:15.131Z,988.08
2022-08-26T06:34:16.867Z,988.07
2022-08-26T06:35:18.603Z,988.01
2022-08-26T06:36:20.323Z,988.07
2022-08-26T06:37:23.086Z,988.06
2022-08-26T06:38:23.796Z,988.01
2022-08-26T06:39:25.547Z,988.07
2022-08-26T06:40:27.308Z,988.07
2022-08-26T06:41:29.001Z,988.07
2022-08-26T06:42:30.795Z,988.05
2022-08-26T06:43:32.459Z,988.05
2022-08-26T06:44:34.203Z,988.04
2022-08-26T06:45:35.921Z,988.06
2022-08-26T06:46:37.788Z,988.03
2022-08-26T06:47:39.402Z,988.04
2022-08-26T06:48:41.154Z,988.08
2022-08-26T06:49:44.343Z,988.08
2022-08-26T06:50:44.609Z,988.09
2022-08-26T06:51:46.364Z,988.12
2022-08-26T06:52:48.069Z,988.12
2022-08-26T06:53:49.814Z,988.1
2022-08-26T06:54:51.529Z,988.14
2022-08-26T06:55:53.267Z,988.15
2022-08-26T06:56:54.996Z,988.14
2022-08-26T06:57:56.726Z,988.15
2022-08-26T06:58:58.468Z,988.19
2022-08-26T07:00:00.207Z,988.17
2022-08-26T07:01:11.397Z,988.16
2022-08-26T07:02:03.856Z,988.15
2022-08-26T07:03:05.513Z,988.23
2022-08-26T07:04:07.894Z,988.14
2022-08-26T07:05:08.861Z,988.2
2022-08-26T07:06:10.612Z,988.14
2022-08-26T07:07:12.350Z,988.14
2022-08-26T07:08:14.117Z,988.16
2022-08-26T07:09:15.801Z,988.18
2022-08-26T07:10:17.558Z,988.13
2022-08-26T07:11:19.265Z,988.11
2022-08-26T07:12:21.138Z,988.07
2022-08-26T07:13:30.524Z,988.13
2022-08-26T07:14:24.479Z,988.11
2022-08-26T07:15:31.046Z,988.1
2022-08-26T07:16:27.943Z,988.08
2022-08-26T07:17:29.697Z,988.12
2022-08-26T07:18:31.393Z,988.12
2022-08-26T07:19:33.165Z,988.11
2022-08-26T07:20:34.878Z,988.08
2022-08-26T07:21:36.616Z,988.05
2022-08-26T07:22:38.375Z,988.09
2022-08-26T07:23:40.404Z,988.06
2022-08-26T07:24:42.507Z,988.13
2022-08-26T07:25:43.565Z,988.07
2022-08-26T07:26:45.256Z,988.07
2022-08-26T07:27:47.119Z,988.11
2022-08-26T07:28:48.735Z,988.11
2022-08-26T07:29:50.467Z,988.11
2022-08-26T07:30:52.520Z,988.07
2022-08-26T07:31:53.934Z,988.09
2022-08-26T07:32:55.681Z,988.1
2022-08-26T07:33:11.209Z,988.09
2022-08-26T07:34:12.849Z,988.12
2022-08-26T07:35:14.572Z,988.08
2022-08-26T07:36:16.300Z,988.07
2022-08-26T07:37:18.042Z,988.1
2022-08-26T07:38:19.800Z,988.11
2022-08-26T07:39:21.565Z,988.14
2022-08-26T07:40:23.282Z,988.11
2022-08-26T07:41:25.046Z,988.11
2022-08-26T07:42:26.750Z,988.16
2022-08-26T07:43:28.432Z,988.16
2022-08-26T07:44:30.294Z,988.18
2022-08-26T07:45:31.901Z,988.18
2022-08-26T07:46:33.632Z,988.15
2022-08-26T07:47:35.364Z,988.18
2022-08-26T07:48:37.107Z,988.19
2022-08-26T07:49:38.905Z,988.17
2022-08-26T07:50:49.564Z,988.19
2022-08-26T07:51:42.299Z,988.22
2022-08-26T07:52:44.029Z,988.2
2022-08-26T07:53:48.022Z,988.22
2022-08-26T07:54:47.499Z,988.22
2022-08-26T07:55:49.463Z,988.21
2022-08-26T07:56:51.023Z,988.18
2022-08-26T07:57:52.697Z,988.2
2022-08-26T07:58:54.444Z,988.22
2022-08-26T07:59:56.200Z,988.17
2022-08-26T08:00:57.913Z,988.22
2022-08-26T08:01:59.704Z,988.2
2022-08-26T08:03:01.378Z,988.24
2022-08-26T08:04:03.091Z,988.18
2022-08-26T08:05:04.891Z,988.18
2022-08-26T08:06:06.573Z,988.19
2022-08-26T08:07:11.471Z,988.16
2022-08-26T08:08:26.602Z,988.19
2022-08-26T08:09:11.787Z,988.19
2022-08-26T08:10:13.549Z,988.17
2022-08-26T08:11:15.238Z,988.19
2022-08-26T08:12:16.966Z,988.14
2022-08-26T08:13:18.736Z,988.16
2022-08-26T08:14:22.365Z,988.14
2022-08-26T08:15:22.175Z,988.13
2022-08-26T08:16:23.935Z,988.14
2022-08-26T08:17:25.662Z,988.15
2022-08-26T08:18:27.353Z,988.14
2022-08-26T08:19:36.532Z,988.15
2022-08-26T08:20:30.849Z,988.16
2022-08-26T08:21:32.562Z,988.19
2022-08-26T08:22:34.312Z,988.16
2022-08-26T08:23:36.021Z,988.16
2022-08-26T08:24:37.758Z,988.19
2022-08-26T08:25:39.485Z,988.15
2022-08-26T08:26:41.227Z,988.15
2022-08-26T08:27:42.956Z,988.2
2022-08-26T08:28:44.711Z,988.21
2022-08-26T08:29:46.487Z,988.17
2022-08-26T08:30:48.226Z,988.18
2022-08-26T08:31:56.790Z,988.17
2022-08-26T08:32:51.711Z,988.19
2022-08-26T08:33:53.351Z,988.16
2022-08-26T08:34:55.093Z,988.18
2022-08-26T08:35:56.825Z,988.2
2022-08-26T08:36:58.563Z,988.19
2022-08-26T08:38:00.340Z,988.19
2022-08-26T08:39:02.026Z,988.14
2022-08-26T08:40:04.018Z,988.12
2022-08-26T08:41:05.690Z,988.12
2022-08-26T08:42:07.250Z,988.12
2022-08-26T08:43:09.191Z,988.12
2022-08-26T08:44:10.683Z,988.12
2022-08-26T08:45:12.417Z,988.09
2022-08-26T08:46:14.288Z,988.09
2022-08-26T08:47:15.895Z,988.11
2022-08-26T08:48:17.621Z,988.08
2022-08-26T08:49:19.377Z,988.1
2022-08-26T08:50:21.109Z,988.09
2022-08-26T08:51:22.819Z,988.08
2022-08-26T08:52:24.805Z,988.09
2022-08-26T08:53:26.281Z,988.1
2022-08-26T08:54:28.026Z,988.09
2022-08-26T08:55:29.755Z,988.1
2022-08-26T08:56:31.494Z,988.07
2022-08-26T08:57:33.226Z,988.08
2022-08-26T08:58:34.978Z,988.08
2022-08-26T08:59:38.421Z,988.07
2022-08-26T09:00:39.832Z,988.1
2022-08-26T09:01:40.262Z,988.11
2022-08-26T09:02:41.998Z,988.04
2022-08-26T09:03:43.669Z,988.08
2022-08-26T09:04:45.508Z,988.1
2022-08-26T09:05:48.942Z,988.08
2022-08-26T09:06:48.905Z,988.12
2022-08-26T09:07:50.575Z,988.08
2022-08-26T09:08:52.299Z,988.06
2022-08-26T09:09:54.024Z,988.11
2022-08-26T09:10:55.785Z,988.04
2022-08-26T09:11:57.498Z,988.12
2022-08-26T09:12:59.224Z,988.09
2022-08-26T09:14:00.988Z,988.09
2022-08-26T09:15:02.705Z,988.07
2022-08-26T09:16:04.446Z,988.07
2022-08-26T09:17:06.269Z,988.05
2022-08-26T09:18:08.096Z,988.1
2022-08-26T09:19:09.620Z,988.09
2022-08-26T09:20:11.340Z,988.15
2022-08-26T09:21:13.136Z,988.09
2022-08-26T09:22:15.083Z,988.12
2022-08-26T09:23:16.551Z,988.17
2022-08-26T09:24:18.292Z,988.11
2022-08-26T09:25:20.029Z,988.13
2022-08-26T09:26:24.754Z,988.11
2022-08-26T09:27:23.490Z,988.12
2022-08-26T09:28:25.237Z,988.07
2022-08-26T09:29:27.015Z,988.06
2022-08-26T09:30:28.801Z,988.08
2022-08-26T09:31:30.542Z,988.1
2022-08-26T09:32:32.156Z,988.1
2022-08-26T09:33:33.902Z,988.05
2022-08-26T09:34:35.626Z,988.05
2022-08-26T09:35:37.360Z,988.1
2022-08-26T09:36:41.421Z,988.1
2022-08-26T09:37:40.903Z,988.09
2022-08-26T09:38:42.572Z,988.13
2022-08-26T09:39:44.294Z,988.1
2022-08-26T09:40:46.062Z,988.06
2022-08-26T09:41:47.778Z,988.05
2022-08-26T09:42:49.556Z,988.06
2022-08-26T09:43:51.218Z,988.04
2022-08-26T09:44:52.964Z,987.99
2022-08-26T09:45:58.479Z,988
2022-08-26T09:46:56.435Z,987.99
2022-08-26T09:48:01.247Z,987.94
2022-08-26T09:48:59.895Z,987.9
2022-08-26T09:50:01.621Z,987.91
2022-08-26T09:51:13.361Z,987.89
2022-08-26T09:52:05.112Z,987.91
2022-08-26T09:53:09.867Z,987.87
2022-08-26T09:54:08.563Z,987.83
2022-08-26T09:55:10.291Z,987.86
2022-08-26T09:56:12.031Z,987.85
2022-08-26T09:57:13.780Z,987.86
2022-08-26T09:58:15.498Z,987.84
2022-08-26T09:59:18.901Z,987.82
2022-08-26T10:00:18.992Z,987.81
2022-08-26T10:01:20.770Z,987.78
2022-08-26T10:02:22.435Z,987.79
2022-08-26T10:03:24.187Z,987.74
2022-08-26T10:04:26.751Z,987.74
2022-08-26T10:05:27.620Z,987.75
2022-08-26T10:06:29.397Z,987.72
2022-08-26T10:07:31.090Z,987.71
2022-08-26T10:08:32.840Z,987.69
2022-08-26T10:09:34.578Z,987.69
2022-08-26T10:10:36.286Z,987.66
2022-08-26T10:11:38.021Z,987.62
2022-08-26T10:12:39.756Z,987.66
2022-08-26T10:13:41.519Z,987.62
2022-08-26T10:15:50.017Z,987.67
2022-08-26T10:16:46.811Z,987.69
2022-08-26T10:17:48.436Z,987.62
2022-08-26T10:18:50.168Z,987.59
2022-08-26T10:19:56.986Z,987.58
2022-08-26T10:20:53.630Z,987.6
2022-08-26T10:21:55.358Z,987.58
2022-08-26T10:22:57.247Z,987.53
2022-08-26T10:23:58.837Z,987.53
2022-08-26T10:25:00.590Z,987.51
2022-08-26T10:26:07.293Z,987.54
2022-08-26T10:27:04.032Z,987.46
2022-08-26T10:28:05.988Z,987.47
2022-08-26T10:28:47.011Z,987.42
2022-08-26T10:29:48.671Z,987.44
2022-08-26T10:30:50.439Z,987.44
2022-08-26T10:31:52.198Z,987.38
2022-08-26T10:32:53.900Z,987.42
2022-08-26T10:34:00.006Z,987.43
2022-08-26T10:34:57.392Z,987.42
2022-08-26T10:35:59.085Z,987.4
2022-08-26T10:37:13.711Z,987.41
2022-08-26T10:38:02.690Z,987.43
2022-08-26T10:39:04.304Z,987.43
2022-08-26T10:40:06.126Z,987.4
2022-08-26T10:41:09.805Z,987.43
2022-08-26T10:42:09.475Z,987.41
2022-08-26T10:43:11.703Z,987.39
2022-08-26T10:44:12.942Z,987.37
2022-08-26T10:45:15.103Z,987.35
2022-08-26T10:46:16.519Z,987.34
2022-08-26T10:47:18.161Z,987.34
2022-08-26T10:48:19.878Z,987.28
2022-08-26T10:49:21.638Z,987.33
2022-08-26T10:50:23.357Z,987.3
2022-08-26T10:51:25.094Z,987.25
2022-08-26T10:52:29.338Z,987.3
2022-08-26T10:53:28.553Z,987.26
2022-08-26T10:54:30.326Z,987.25
2022-08-26T10:55:34.723Z,987.24
2022-08-26T10:56:33.784Z,987.26
2022-08-26T10:57:35.574Z,987.3
2022-08-26T10:58:37.262Z,987.28
2022-08-26T10:59:38.974Z,987.24
2022-08-26T11:00:40.782Z,987.28
2022-08-26T11:01:42.722Z,987.27
2022-08-26T11:02:47.121Z,987.2
2022-08-26T11:03:45.974Z,987.25
2022-08-26T11:04:48.419Z,987.23
2022-08-26T11:05:49.355Z,987.22
2022-08-26T11:06:51.278Z,987.22
2022-08-26T11:07:52.834Z,987.19
2022-08-26T11:08:54.555Z,987.18
2022-08-26T11:09:56.286Z,987.18
2022-08-26T11:10:59.085Z,987.16
2022-08-26T11:12:02.843Z,987.13
2022-08-26T11:13:01.630Z,987.13
2022-08-26T11:14:03.469Z,987.07
2022-08-26T11:15:05.215Z,987.07
2022-08-26T11:16:06.716Z,987.11
2022-08-26T11:17:08.461Z,987.11
2022-08-26T11:18:10.441Z,987.13
2022-08-26T11:19:11.902Z,987.12
2022-08-26T11:20:14.611Z,987.13
2022-08-26T11:21:15.386Z,987.12
2022-08-26T11:22:17.112Z,987.1
2022-08-26T11:23:18.820Z,987.1
2022-08-26T11:24:20.586Z,987.07
2022-08-26T11:25:26.459Z,987.1
2022-08-26T11:26:35.751Z,987.08
2022-08-26T11:27:26.068Z,987.08
2022-08-26T11:28:27.525Z,987.14
2022-08-26T11:29:29.211Z,987.07
2022-08-26T11:30:30.957Z,987.08
2022-08-26T11:31:32.832Z,987.08
2022-08-26T11:32:34.449Z,987.09
2022-08-26T11:33:36.195Z,987.06
2022-08-26T11:34:37.880Z,987.05
2022-08-26T11:35:39.632Z,987.06
2022-08-26T11:36:41.358Z,987.04
2022-08-26T11:37:43.079Z,987.01
2022-08-26T11:38:44.813Z,987
2022-08-26T11:39:49.333Z,987.06
2022-08-26T11:40:48.288Z,987.02
2022-08-26T11:41:52.606Z,987.04
2022-08-26T11:42:51.752Z,987.01
2022-08-26T11:43:53.506Z,987.01
2022-08-26T11:44:57.005Z,986.97
2022-08-26T11:45:57.041Z,986.93
2022-08-26T11:46:58.801Z,986.94
2022-08-26T11:48:00.481Z,986.91
2022-08-26T11:49:02.194Z,986.86
2022-08-26T11:50:03.887Z,986.87
2022-08-26T11:51:05.633Z,986.88
2022-08-26T11:52:07.367Z,986.89
2022-08-26T11:53:09.117Z,986.85
2022-08-26T11:54:10.826Z,986.84
2022-08-26T11:55:12.548Z,986.84
2022-08-26T11:56:14.287Z,986.83
2022-08-26T11:57:16.018Z,986.82
2022-08-26T11:58:17.756Z,986.81
2022-08-26T11:59:19.506Z,986.78
2022-08-26T12:00:22.487Z,986.73
2022-08-26T12:01:22.987Z,986.74
2022-08-26T12:02:24.696Z,986.74
2022-08-26T12:03:26.604Z,986.74
2022-08-26T12:04:28.272Z,986.72
2022-08-26T12:05:31.083Z,986.73
2022-08-26T12:06:31.731Z,986.72
2022-08-26T12:07:33.380Z,986.67
2022-08-26T12:08:35.113Z,986.62
2022-08-26T12:09:36.824Z,986.64
2022-08-26T12:10:38.554Z,986.63
2022-08-26T12:11:40.281Z,986.58
2022-08-26T12:12:42.029Z,986.6
2022-08-26T12:13:43.787Z,986.64
2022-08-26T12:14:45.484Z,986.65
2022-08-26T12:15:47.241Z,986.63
2022-08-26T12:16:49.056Z,986.66
2022-08-26T12:17:54.425Z,986.65
2022-08-26T12:18:52.461Z,986.68
2022-08-26T12:19:54.163Z,986.67
2022-08-26T12:20:55.930Z,986.7
2022-08-26T12:21:57.701Z,986.67
2022-08-26T12:22:59.362Z,986.66
2022-08-26T12:24:01.101Z,986.66
2022-08-26T12:25:02.901Z,986.71
2022-08-26T12:26:04.583Z,986.73
2022-08-26T12:27:06.299Z,986.73
2022-08-26T12:28:08.189Z,986.68
2022-08-26T12:29:20.060Z,986.68
2022-08-26T12:30:12.451Z,986.71
2022-08-26T12:31:13.270Z,986.73
2022-08-26T12:32:14.977Z,986.7
2022-08-26T12:33:22.694Z,986.7
2022-08-26T12:34:18.678Z,986.73
2022-08-26T12:35:20.173Z,986.72
2022-08-26T12:36:21.920Z,986.74
2022-08-26T12:37:23.652Z,986.77
2022-08-26T12:38:25.458Z,986.78
2022-08-26T12:39:27.104Z,986.79
2022-08-26T12:40:29.014Z,986.79
2022-08-26T12:41:30.758Z,986.76
2022-08-26T12:42:32.285Z,986.77
2022-08-26T12:43:34.155Z,986.73
2022-08-26T12:44:35.828Z,986.76
2022-08-26T12:45:37.598Z,986.78
2022-08-26T12:46:39.228Z,986.83
2022-08-26T12:47:42.492Z,986.87
2022-08-26T12:48:42.715Z,986.88
2022-08-26T12:49:44.455Z,986.94
2022-08-26T12:50:46.195Z,986.9
2022-08-26T12:51:47.885Z,986.92